createdAt,value
2018-10-11T00:00:52.384Z,97
2018-10-11T00:05:54.834Z,97.7
2018-10-11T00:10:57.325Z,97.1
2018-10-11T00:15:59.768Z,99.5
2018-10-11T00:21:02.227Z,99.9
2018-10-11T00:26:04.665Z,99.9
2018-10-11T00:31:07.138Z,99.9
2018-10-11T00:36:09.580Z,99.9
2018-10-11T00:41:12.056Z,99.9
2018-10-11T00:46:14.511Z,99.9
2018-10-11T00:51:16.965Z,99.9
2018-10-11T00:56:19.417Z,99.9
2018-10-11T01:01:21.878Z,99.9
2018-10-11T01:06:24.363Z,99.9
2018-10-11T01:11:26.812Z,99.9
2018-10-11T01:16:29.359Z,99.9
2018-10-11T01:21:31.845Z,99.9
2018-10-11T01:26:34.185Z,99.9
2018-10-11T01:31:36.630Z,99.9
2018-10-11T01:36:39.075Z,99.9
2018-10-11T01:41:41.547Z,99.9
2018-10-11T01:46:44.003Z,99.9
2018-10-11T01:51:46.454Z,99.9
2018-10-11T01:56:48.936Z,99.9
2018-10-11T02:01:51.390Z,99.9
2018-10-11T02:06:53.836Z,99.9
2018-10-11T02:11:56.283Z,99.9
2018-10-11T02:16:58.757Z,99.9
2018-10-11T02:22:01.259Z,99.9
2018-10-11T02:27:03.655Z,99.9
2018-10-11T02:32:06.287Z,99.9
2018-10-11T02:37:08.588Z,99.9
2018-10-11T02:42:11.039Z,99.9
2018-10-11T02:47:13.493Z,99.9
2018-10-11T02:52:15.946Z,99.9
2018-10-11T02:57:18.407Z,99.9
2018-10-11T03:02:20.864Z,99.9
2018-10-11T03:07:23.345Z,99.9
2018-10-11T03:12:25.779Z,99.9
2018-10-11T03:17:28.249Z,99.9
2018-10-11T03:22:30.745Z,99.9
2018-10-11T03:27:33.189Z,99.9
2018-10-11T03:32:35.619Z,99.8
2018-10-11T03:37:38.070Z,97.8
2018-10-11T03:42:40.528Z,97
2018-10-11T03:47:42.990Z,98
2018-10-11T03:52:45.458Z,97.9
2018-10-11T03:57:47.920Z,98.6
2018-10-11T04:02:50.438Z,98.5
2018-10-11T04:07:52.844Z,99.5
2018-10-11T04:12:55.361Z,99.9
2018-10-11T04:17:57.789Z,99.9
2018-10-11T04:23:00.244Z,98.2
2018-10-11T04:28:02.688Z,96
2018-10-11T04:33:05.180Z,94.3
2018-10-11T04:38:07.657Z,93.4
2018-10-11T04:43:10.160Z,91.9
2018-10-11T04:48:12.478Z,90.4
2018-10-11T04:53:14.960Z,88.5
2018-10-11T04:58:17.396Z,90.4
2018-10-11T05:03:19.847Z,92.1
2018-10-11T05:08:22.315Z,92.9
2018-10-11T05:13:24.774Z,92.6
2018-10-11T05:18:27.237Z,94
2018-10-11T05:23:29.692Z,94.2
2018-10-11T05:28:32.162Z,93.5
2018-10-11T05:33:34.615Z,87.6
2018-10-11T05:38:37.100Z,82.7
2018-10-11T05:43:39.528Z,79.7
2018-10-11T05:48:41.968Z,79.4
2018-10-11T05:53:44.445Z,76.7
2018-10-11T05:58:46.894Z,72.7
2018-10-11T06:03:49.360Z,69
2018-10-11T06:08:51.821Z,65.9
2018-10-11T06:13:54.261Z,68
2018-10-11T06:18:56.739Z,64
2018-10-11T06:23:59.282Z,42.6
2018-10-11T06:29:01.675Z,23.8
2018-10-11T06:34:04.106Z,11
2018-10-11T06:39:06.565Z,1.8
2018-10-11T06:44:09.069Z,1
2018-10-11T06:49:11.533Z,1
2018-10-11T06:54:13.923Z,1
2018-10-11T06:59:16.380Z,1
2018-10-11T07:04:18.842Z,1
2018-10-11T07:09:21.327Z,1
2018-10-11T07:14:23.782Z,1
2018-10-11T07:19:26.358Z,1
2018-10-11T07:24:28.681Z,1
2018-10-11T07:29:31.129Z,1
2018-10-11T07:34:33.708Z,1
2018-10-11T07:39:36.090Z,1
2018-10-11T07:44:38.514Z,1
2018-10-11T07:49:40.969Z,1
2018-10-11T07:54:43.443Z,1
2018-10-11T07:59:45.890Z,1
2018-10-11T08:04:48.345Z,1
2018-10-11T08:09:50.921Z,1
2018-10-11T08:14:53.270Z,1
2018-10-11T08:19:55.769Z,1
2018-10-11T08:24:58.350Z,1
2018-10-11T08:30:00.707Z,1
2018-10-11T08:35:03.102Z,1
2018-10-11T08:40:05.575Z,1
2018-10-11T08:45:08.036Z,1
2018-10-11T08:50:10.474Z,1
2018-10-11T08:55:12.935Z,1
2018-10-11T09:00:15.402Z,1
2018-10-11T09:05:17.976Z,1
2018-10-11T09:10:20.328Z,1
2018-10-11T09:15:22.807Z,1
2018-10-11T09:20:25.268Z,1
2018-10-11T09:25:27.724Z,1
2018-10-11T09:30:30.274Z,1
2018-10-11T09:35:32.629Z,1
2018-10-11T09:40:35.061Z,1
2018-10-11T09:45:37.609Z,1
2018-10-11T09:50:39.972Z,1
2018-10-11T09:55:42.448Z,1
2018-10-11T10:00:44.890Z,1
2018-10-11T10:05:47.353Z,1
2018-10-11T10:10:49.815Z,1
2018-10-11T10:15:52.283Z,1
2018-10-11T10:20:54.771Z,1
2018-10-11T10:25:57.181Z,1
2018-10-11T10:30:59.630Z,1
2018-10-11T10:36:02.123Z,1
2018-10-11T10:41:04.565Z,1
2018-10-11T10:46:07.024Z,1
2018-10-11T10:51:09.476Z,1
2018-10-11T10:56:11.931Z,1
2018-10-11T11:01:14.395Z,1
2018-10-11T11:06:16.875Z,1
2018-10-11T11:11:19.305Z,1
2018-10-11T11:16:21.769Z,1
2018-10-11T11:21:24.242Z,1
2018-10-11T11:26:26.686Z,1
2018-10-11T11:31:29.139Z,1
2018-10-11T11:36:31.581Z,1
2018-10-11T11:41:34.058Z,1
2018-10-11T11:46:36.510Z,1
2018-10-11T11:51:39.089Z,1
2018-10-11T11:56:41.425Z,1
2018-10-11T12:01:44.168Z,1
2018-10-11T12:06:46.348Z,1
2018-10-11T12:11:48.820Z,1
2018-10-11T12:16:51.278Z,1
2018-10-11T12:21:53.789Z,1
2018-10-11T12:26:56.246Z,1
2018-10-11T12:31:58.648Z,1
2018-10-11T12:37:01.128Z,1
2018-10-11T12:42:03.559Z,1
2018-10-11T12:47:06.011Z,1
2018-10-11T12:52:08.545Z,1
2018-10-11T12:57:16.186Z,1
2018-10-11T13:02:13.378Z,1
2018-10-11T13:07:15.833Z,1
2018-10-11T13:12:18.329Z,1
2018-10-11T13:17:20.757Z,1
2018-10-11T13:22:23.212Z,1
2018-10-11T13:27:25.680Z,1
2018-10-11T13:32:28.137Z,1
2018-10-11T13:37:30.671Z,1
2018-10-11T13:42:33.068Z,1
2018-10-11T13:47:41.217Z,1
2018-10-11T13:52:37.963Z,1
2018-10-11T13:57:40.436Z,1
2018-10-11T14:02:42.879Z,1
2018-10-11T14:07:45.343Z,1
2018-10-11T14:12:47.803Z,1
2018-10-11T14:17:50.414Z,1
2018-10-11T14:22:52.722Z,1
2018-10-11T14:27:55.229Z,1
2018-10-11T14:32:57.635Z,1
2018-10-11T14:38:00.105Z,1
2018-10-11T14:43:02.557Z,1
2018-10-11T14:48:05.011Z,1
2018-10-11T14:53:07.483Z,1
2018-10-11T14:58:09.932Z,1
2018-10-11T15:03:12.447Z,1
2018-10-11T15:13:17.317Z,1
2018-10-11T15:18:19.772Z,1
2018-10-11T15:23:22.239Z,1
2018-10-11T15:28:24.774Z,1
2018-10-11T15:33:27.129Z,1
2018-10-11T15:38:29.616Z,1
2018-10-11T15:43:32.162Z,1
2018-10-11T15:48:34.523Z,1
2018-10-11T15:53:37.021Z,1
2018-10-11T15:58:39.554Z,1
2018-10-11T16:03:41.897Z,1
2018-10-11T16:08:44.337Z,1
2018-10-11T16:13:46.896Z,1
2018-10-11T16:18:49.323Z,1
2018-10-11T16:23:51.717Z,1
2018-10-11T16:28:54.266Z,1
2018-10-11T16:33:56.624Z,1
2018-10-11T16:38:59.154Z,1
2018-10-11T16:44:01.563Z,1
2018-10-11T16:49:04.037Z,1
2018-10-11T16:54:06.503Z,1
2018-10-11T16:59:08.981Z,1
2018-10-11T17:04:11.440Z,1
2018-10-11T17:09:13.843Z,1
2018-10-11T17:14:16.434Z,1
2018-10-11T17:19:18.749Z,1
2018-10-11T17:24:21.222Z,1
2018-10-11T17:29:23.692Z,1
2018-10-11T17:34:26.206Z,1
2018-10-11T17:39:28.593Z,1
2018-10-11T17:44:31.073Z,1
2018-10-11T17:49:33.505Z,1
2018-10-11T17:54:35.976Z,1
2018-10-11T17:59:38.432Z,1
2018-10-11T18:04:40.885Z,1
2018-10-11T18:09:43.348Z,1
2018-10-11T18:14:45.807Z,1
2018-10-11T18:19:48.259Z,1
2018-10-11T18:24:50.707Z,1
2018-10-11T18:29:53.170Z,1
2018-10-11T18:34:55.627Z,1
2018-10-11T18:39:58.101Z,1
2018-10-11T18:45:00.669Z,1
2018-10-11T18:50:03.054Z,1
2018-10-11T18:55:05.465Z,1
2018-10-11T19:00:07.940Z,1
2018-10-11T19:05:10.376Z,1
2018-10-11T19:10:12.830Z,1
2018-10-11T19:15:15.303Z,1
2018-10-11T19:20:17.786Z,1
2018-10-11T19:25:20.208Z,1
2018-10-11T19:30:22.688Z,1
2018-10-11T19:35:25.134Z,1
2018-10-11T19:40:27.578Z,1
2018-10-11T19:45:30.044Z,1
2018-10-11T19:50:32.490Z,1
2018-10-11T19:55:35.008Z,1
2018-10-11T20:00:37.432Z,1
2018-10-11T20:05:39.895Z,1
2018-10-11T20:10:42.337Z,1
2018-10-11T20:15:44.792Z,1.1
2018-10-11T20:20:47.238Z,3.1
2018-10-11T20:25:49.736Z,3.9
2018-10-11T20:30:52.157Z,4.6
2018-10-11T20:35:54.633Z,6.2
2018-10-11T20:45:59.540Z,8.2
2018-10-11T20:51:02.067Z,8.3
2018-10-11T20:56:04.456Z,8.8
2018-10-11T21:01:06.917Z,9.5
2018-10-11T21:06:09.367Z,11
2018-10-11T21:11:11.820Z,11.9
2018-10-11T21:16:14.362Z,12.9
2018-10-11T21:21:16.779Z,14.7
2018-10-11T21:26:19.274Z,15.3
2018-10-11T21:31:21.652Z,16.8
2018-10-11T21:36:24.126Z,19.3
2018-10-11T21:41:26.590Z,21.7
2018-10-11T21:46:29.172Z,23
2018-10-11T21:51:31.477Z,22.9
2018-10-11T21:56:33.946Z,23.1
2018-10-11T22:01:36.427Z,25.8
2018-10-11T22:06:38.891Z,25.9
2018-10-11T22:11:41.325Z,23.8
2018-10-11T22:16:43.780Z,22.7
2018-10-11T22:21:46.266Z,23.4
2018-10-11T22:26:48.699Z,27.2
2018-10-11T22:31:51.188Z,36.1
2018-10-11T22:36:53.632Z,43.7
2018-10-11T22:41:56.077Z,45.7
2018-10-11T22:46:58.512Z,52.8
2018-10-11T22:52:00.991Z,66.3
2018-10-11T22:57:03.437Z,72
2018-10-11T23:02:05.900Z,71
2018-10-11T23:07:08.359Z,67.3
2018-10-11T23:12:10.819Z,77
2018-10-11T23:17:13.262Z,86.5
2018-10-11T23:22:15.792Z,90.6
2018-10-11T23:27:18.184Z,91.8
2018-10-11T23:32:20.901Z,90
2018-10-11T23:37:23.109Z,86.5
2018-10-11T23:42:25.563Z,83.8
2018-10-11T23:47:28.021Z,91.2
2018-10-11T23:52:30.484Z,93.4
2018-10-11T23:57:32.926Z,99.9
